Flight Track Log - Related Links

Times and Time Zones

All times are in EDT time to prevent confusion due to time zone crossing. See the SWA234 flight status page for this flight to view local times or setup timezone preferences in your user account.

Time Position Orientation Groundspeed Altitude Reporting Facility
EDT Latitude Longitude Course Direction KTS MPH feet Rate Location/Type
Mon 08:10:44 AM 39.1833 -76.7333 270° West 190 219 2,300  Level Potomac TRACON
Mon 08:11:44 AM 39.2000 -76.8167 284° West 232 267 4,500 2,950 Climbing Potomac TRACON
Mon 08:12:44 AM 39.2167 -76.9167 282° West 264 304 8,200 3,300 Climbing Potomac TRACON
Mon 08:13:44 AM 39.2167 -77.0000 270° West 278 320 11,100 2,900 Climbing Potomac TRACON
Mon 08:14:44 AM 39.2167 -77.1167 270° West 335 386 14,000 3,074 Climbing Potomac TRACON
Mon 08:15:45 AM 39.1500 -77.2167 229° Southwest 351 404 17,300 2,571 Climbing Potomac TRACON
Mon 08:16:00 AM 39.3767 -77.3624 270° West  Level Estimated
Mon 08:17:53 AM 38.9875 -77.3969 221° Southwest 376 433 22,100  Level Washington Center
Mon 08:18:54 AM 38.9664 -77.5353 259° West 378 435 24,400 2,281 Climbing Washington Center
Mon 08:19:54 AM 38.9475 -77.6814 261° West 404 465 26,700 1,934 Climbing Washington Center
Mon 08:20:55 AM 38.9469 -77.8283 270° West 409 471 28,300 1,488 Climbing Washington Center
Mon 08:21:55 AM 38.9525 -77.9672 273° West 424 488 29,700 1,897 Climbing Washington Center
Mon 08:22:52 AM 38.9558 -78.1142 272° West 429 494 32,000 2,085 Climbing Washington Center
Mon 08:23:53 AM 38.9628 -78.2667 273° West 429 494 33,800 1,672 Climbing Washington Center
Mon 08:24:54 AM 38.9722 -78.4111 275° West 424 488 35,400 1,537 Climbing Washington Center
Mon 08:25:54 AM 38.9811 -78.5558 275° West 419 482 36,900 1,311 Climbing Washington Center
Mon 08:26:53 AM 38.9900 -78.7003 275° West 419 482 38,000 550 Climbing Washington Center
Mon 08:27:54 AM 38.9986 -78.8450 274° West 414 476 38,000  Level Washington Center
Mon 08:28:55 AM 39.0072 -78.9894 274° West 414 476 38,000  Level Washington Center
Mon 08:29:55 AM 39.0156 -79.1369 274° West 409 471 38,000  Level Washington Center
Mon 08:30:52 AM 39.0278 -79.2792 276° West 409 471 38,000  Level Washington Center
Mon 08:31:54 AM 39.0358 -79.4239 274° West 409 471 38,000  Level Washington Center
Mon 08:32:55 AM 39.0514 -79.5850 277° West 409 471 38,000  Level Washington Center
Mon 08:33:53 AM 39.0611 -79.7325 275° West 409 471 38,000  Level Washington Center
Mon 08:34:54 AM 39.0664 -79.8772 273° West 409 471 38,000  Level Washington Center
Mon 08:35:34 AM 39.0675 -79.9567 271° West 412 474 38,000  Level Indianapolis Center
Mon 08:36:36 AM 39.0778 -80.1192 275° West 411 473 38,000  Level Indianapolis Center
Mon 08:37:38 AM 39.0858 -80.2653 274° West 410 472 38,000  Level Indianapolis Center
Mon 08:38:40 AM 39.0953 -80.4125 275° West 412 474 38,000  Level Indianapolis Center
Mon 08:39:42 AM 39.1014 -80.5575 273° West 408 470 38,000  Level Indianapolis Center
Mon 08:40:44 AM 39.1100 -80.7347 274° West 411 473 38,000  Level Indianapolis Center
Mon 08:41:46 AM 39.1522 -80.8706 292° West 418 481 38,000  Level Indianapolis Center
Mon 08:42:47 AM 39.2103 -81.0008 300° West 421 484 38,000  Level Indianapolis Center
Mon 08:43:49 AM 39.2683 -81.1306 300° West 420 483 38,000  Level Indianapolis Center
Mon 08:44:51 AM 39.3269 -81.2597 300° West 419 482 38,000  Level Indianapolis Center
Mon 08:45:52 AM 39.3844 -81.3889 300° West 417 480 38,000  Level Indianapolis Center
Mon 08:46:54 AM 39.4417 -81.5183 300° West 415 478 38,000  Level Indianapolis Center
Mon 08:47:56 AM 39.5117 -81.6736 300° West 415 478 38,000  Level Indianapolis Center
Mon 08:48:58 AM 39.5692 -81.8036 300° West 416 479 38,000  Level Indianapolis Center
Mon 08:50:00 AM 39.6267 -81.9347 300° West 418 481 38,000  Level Indianapolis Center
Mon 08:51:01 AM 39.6833 -82.0664 299° West 418 481 38,000  Level Indianapolis Center
Mon 08:52:03 AM 39.7419 -82.2000 300° West 416 479 38,000  Level Indianapolis Center
Mon 08:53:05 AM 39.7986 -82.3300 300° West 414 476 38,000  Level Indianapolis Center
Mon 08:54:07 AM 39.8544 -82.4608 299° West 415 478 38,000  Level Indianapolis Center
Mon 08:55:09 AM 39.9094 -82.5897 299° West 411 473 38,000  Level Indianapolis Center
Mon 08:56:10 AM 39.9761 -82.7431 300° West 408 470 38,000  Level Indianapolis Center
Mon 08:57:12 AM 40.0303 -82.8725 299° West 409 471 38,000  Level Indianapolis Center
Mon 08:58:14 AM 40.0853 -82.9992 300° West 406 467 38,000  Level Indianapolis Center
Mon 08:59:16 AM 40.1389 -83.1283 299° West 408 470 38,000  Level Indianapolis Center
Mon 09:00:18 AM 40.1939 -83.2569 299° West 409 471 38,000  Level Indianapolis Center
Mon 09:01:20 AM 40.2583 -83.4114 299° West 407 468 38,000  Level Indianapolis Center
Mon 09:02:21 AM 40.3119 -83.5411 298° West 413 475 38,000  Level Indianapolis Center
Mon 09:03:23 AM 40.3664 -83.6703 299° West 410 472 38,000 -48 Level Indianapolis Center
Mon 09:04:25 AM 40.4200 -83.8003 298° West 407 468 37,900 -532 Descending Indianapolis Center
Mon 09:05:27 AM 40.4733 -83.9297 298° West 406 467 36,900 -919 Descending Indianapolis Center
Mon 09:06:29 AM 40.5267 -84.0583 299° West 403 464 36,000 -435 Descending Indianapolis Center
Mon 09:07:31 AM 40.5892 -84.2136 298° West 402 463 36,000 -871 Level Indianapolis Center
Mon 09:08:33 AM 40.6406 -84.3389 298° West 395 455 34,200 -1,887 Descending Indianapolis Center
Mon 09:09:35 AM 40.6906 -84.4636 298° West 387 445 32,100 -1,935 Descending Indianapolis Center
Mon 09:10:37 AM 40.7389 -84.5828 298° West 374 430 30,200 -1,125 Descending Indianapolis Center
Mon 09:11:27 AM 40.7808 -84.6908 297° West 370 426 30,000 -107 Descending Chicago Center
Mon 09:12:29 AM 40.8300 -84.8122 298° West 373 429 30,000  Level Chicago Center
Mon 09:13:31 AM 40.8778 -84.9311 298° West 371 427 30,000 -48 Level Chicago Center
Mon 09:14:34 AM 40.9236 -85.0475 298° West 361 415 29,900 -528 Descending Chicago Center
Mon 09:15:36 AM 40.9697 -85.1631 298° West 356 410 28,900 -1,065 Descending Chicago Center
Mon 09:16:38 AM 41.0675 -85.2569 324° Northwest 370 426 27,700 -1,065 Descending Chicago Center
Mon 09:17:40 AM 41.1558 -85.3267 329° Northwest 369 425 26,700 -968 Descending Chicago Center
Mon 09:18:42 AM 41.2397 -85.3942 329° Northwest 358 412 25,700 -968 Descending Chicago Center
Mon 09:19:44 AM 41.3219 -85.4600 329° Northwest 351 404 24,700 -1,161 Descending Chicago Center
Mon 09:20:46 AM 41.3550 -85.5697 292° West 325 374 23,300 -1,403 Descending Chicago Center
Mon 09:21:48 AM 41.3775 -85.6786 285° West 307 353 21,800 -1,355 Descending Chicago Center
Mon 09:22:50 AM 41.3997 -85.7886 285° West 306 352 20,500 -1,597 Descending Chicago Center
Mon 09:23:52 AM 41.4267 -85.9183 286° West 304 350 18,500 -1,680 Descending Chicago Center
Mon 09:24:55 AM 41.4494 -86.0314 285° West 312 359 17,000 -1,632 Descending Chicago Center
Mon 09:25:57 AM 41.4719 -86.1431 285° West 313 360 15,100 -1,790 Descending Chicago Center
Mon 09:26:59 AM 41.4939 -86.2519 285° West 307 353 13,300 -1,742 Descending Chicago Center
Mon 09:28:01 AM 41.5153 -86.3567 285° West 299 344 11,500 -1,500 Descending Chicago Center
Mon 09:29:03 AM 41.5228 -86.4781 275° West 279 321 10,200 -726 Descending Chicago Center
Mon 09:30:05 AM 41.5217 -86.5761 269° West 263 303 10,000 -97 Descending Chicago Center
Mon 09:31:07 AM 41.5197 -86.6742 269° West 264 304 10,000  Level Chicago Center
Mon 09:32:09 AM 41.5208 -86.7708 271° West 264 304 10,000 -532 Level Chicago Center
Mon 09:33:11 AM 41.5225 -86.8647 271° West 255 293 8,900 -1,355 Descending Chicago Center
Mon 09:34:13 AM 41.5172 -86.9758 266° West 251 289 7,200 -1,452 Descending Chicago Center
Mon 09:35:15 AM 41.5178 -87.0689 270° West 251 289 5,900 -624 Descending Chicago Center
Mon 09:36:18 AM 41.5225 -87.1653 274° West 257 296 5,900 -192 Level Chicago Center
Mon 09:37:20 AM 41.5328 -87.2539 279° West 247 284 5,500 -677 Descending Chicago Center
Mon 09:38:22 AM 41.5408 -87.3381 277° West 232 267 4,500 -774 Descending Chicago Center
Mon 09:39:24 AM 41.5494 -87.4175 278° West 223 257 3,900 -290 Descending Chicago Center
Mon 09:40:26 AM 41.5872 -87.4778 310° West 183 211 3,900  Level Chicago Center
Mon 09:41:28 AM 41.6231 -87.5264 315° West 184 212 3,900  Level Chicago Center
Mon 09:42:30 AM 41.6581 -87.5739 315° West 182 209 3,900 -339 Level Chicago Center
Mon 09:43:32 AM 41.6917 -87.6214 313° West 180 207 3,200 -823 Descending Chicago Center
Mon 09:44:34 AM 41.7244 -87.6678 313° West 177 204 2,200 -952 Descending Chicago Center
Mon 09:45:38 AM 41.7594 -87.7167 314° West 165 190 1,200 -629 Descending Chicago Center
Mon 09:46:38 AM 41.7833 -87.7508 313° West 157 181 900 -300 Descending Chicago Center

Login

Don't have an account? Register now (free) for customized features, flight alerts, and more!